Time;durP1;ratioP1;P1;durP2;ratioP2;P2;SDS_P1;SDS_P2;PMS_P1;PMS_P2;Temp;Humidity;BMP_temperature;BMP_pressure;BME280_temperature;BME280_humidity;BME280_pressure;Samples;Min_cycle;Max_cycle;Signal;HPM_P1;HPM_P2
2023/03/26 00:01:04;;;;;;;;;1.00;1.00;;;;;12.41;53.70;100372.47;5046882;28;46268;-67
2023/03/26 00:03:32;;;;;;;;;1.00;1.00;;;;;12.37;53.07;100355.03;5042862;28;45758;-69
2023/03/26 00:06:06;;;;;;;;;1.00;1.00;;;;;12.29;53.82;100360.34;5053648;28;45367;-69
2023/03/26 00:08:34;;;;;;;;;3.00;1.25;;;;;12.18;55.27;100342.13;5046948;28;45312;-66
2023/03/26 00:11:00;;;;;;;;;3.00;1.50;;;;;12.04;55.60;100334.38;5059084;28;47233;-66
2023/03/26 00:13:26;;;;;;;;;3.50;2.00;;;;;11.96;55.58;100330.97;5059037;28;45360;-66
2023/03/26 00:15:52;;;;;;;;;3.00;0.75;;;;;12.04;55.84;100329.13;5059815;28;45410;-64
2023/03/26 00:18:20;;;;;;;;;2.00;1.75;;;;;11.81;56.16;100300.44;5061503;28;45507;-72
2023/03/26 00:20:46;;;;;;;;;2.67;1.00;;;;;11.82;56.33;100317.97;5042839;28;46860;-64
2023/03/26 00:23:13;;;;;;;;;1.00;1.00;;;;;11.68;57.38;100301.47;5042271;28;45633;-65
2023/03/26 00:25:40;;;;;;;;;4.75;1.00;;;;;11.68;57.73;100298.84;5059127;28;45680;-66
2023/03/26 00:28:07;;;;;;;;;3.00;1.00;;;;;11.66;58.47;100301.47;5047110;28;45351;-66
2023/03/26 00:30:40;;;;;;;;;2.00;1.00;;;;;11.62;59.16;100293.66;5059559;28;45409;-71
2023/03/26 00:33:06;;;;;;;;;1.25;1.00;;;;;11.52;59.27;100278.91;5060385;28;45378;-71
2023/03/26 00:35:35;;;;;;;;;4.00;1.00;;;;;11.45;60.48;100272.81;5037892;28;45521;-69
2023/03/26 00:38:01;;;;;;;;;3.50;1.00;;;;;11.56;60.53;100273.59;5043596;28;47337;-66
2023/03/26 00:40:26;;;;;;;;;1.00;1.00;;;;;11.64;60.62;100278.78;5062029;28;46078;-73
2023/03/26 00:42:52;;;;;;;;;1.00;1.00;;;;;11.41;60.86;100239.63;5055699;28;45601;-65
2023/03/26 00:45:20;;;;;;;;;1.00;1.00;;;;;11.49;61.04;100260.56;5057213;28;45388;-73
2023/03/26 00:47:45;;;;;;;;;4.25;1.25;;;;;11.53;61.71;100270.13;5040024;28;45404;-74
2023/03/26 00:50:14;;;;;;;;;0.25;0.25;;;;;11.27;62.29;100249.38;5057551;28;45680;-72
2023/03/26 00:52:45;;;;;;;;;6.50;1.00;;;;;11.28;62.88;100238.91;5038846;28;45686;-64
2023/03/26 00:55:11;;;;;;;;;3.50;1.00;;;;;11.21;63.35;100245.06;5037410;28;45512;-65
2023/03/26 00:57:39;;;;;;;;;1.75;1.00;;;;;11.09;63.82;100232.06;5046933;28;45625;-68
2023/03/26 01:00:09;;;;;;;;;2.75;1.00;;;;;11.06;64.23;100232.97;5034976;28;45513;-65
2023/03/26 01:02:34;;;;;;;;;1.75;1.75;;;;;10.99;64.97;100213.81;5056437;28;45485;-69
2023/03/26 01:05:20;;;;;;;;;2.25;0.50;;;;;11.03;65.56;100212.00;5061024;28;45390;-70
2023/03/26 01:07:45;;;;;;;;;3.00;1.00;;;;;10.86;65.87;100183.34;5044886;28;45391;-70
2023/03/26 01:10:13;;;;;;;;;3.50;1.00;;;;;10.83;66.71;100175.50;5056099;28;45558;-70
2023/03/26 01:12:39;;;;;;;;;4.00;1.00;;;;;10.80;67.79;100186.00;5055534;28;45488;-68
2023/03/26 01:15:07;;;;;;;;;3.00;1.00;;;;;10.79;68.14;100187.75;5038781;28;46077;-71
2023/03/26 01:17:36;;;;;;;;;2.00;2.00;;;;;10.64;68.69;100166.06;5056058;28;45336;-69
2023/03/26 01:20:12;;;;;;;;;2.50;2.00;;;;;10.78;68.82;100175.53;5056520;28;45448;-68
2023/03/26 01:22:43;;;;;;;;;2.00;2.00;;;;;10.70;68.79;100151.16;5055851;28;45422;-64
2023/03/26 01:25:09;;;;;;;;;4.75;1.00;;;;;10.60;69.80;100155.59;5043626;28;45335;-65
2023/03/26 01:27:46;;;;;;;;;1.50;1.50;;;;;10.56;69.91;100171.34;5050815;28;45429;-68
2023/03/26 01:30:26;;;;;;;;;1.25;1.25;;;;;10.52;70.75;100149.53;5042889;28;45400;-64
2023/03/26 01:33:02;;;;;;;;;3.00;1.25;;;;;10.38;71.03;100133.06;5061022;28;45390;-70
2023/03/26 01:35:43;;;;;;;;;2.00;1.75;;;;;10.40;71.34;100139.16;5061512;28;45355;-78
2023/03/26 01:38:36;;;;;;;;;2.50;1.75;;;;;10.27;72.77;100121.75;5044542;28;45422;-68
2023/03/26 01:41:36;;;;;;;;;2.50;1.00;;;;;10.29;72.96;100117.41;5050448;28;46507;-75
2023/03/26 01:44:34;;;;;;;;;1.50;1.25;;;;;10.21;74.43;100100.88;5060779;28;45328;-75
2023/03/26 01:47:00;;;;;;;;;3.00;2.00;;;;;10.19;74.01;100099.13;5012573;28;45557;-69
2023/03/26 01:49:27;;;;;;;;;4.00;1.25;;;;;10.15;75.16;100070.38;5042198;28;45506;-70
2023/03/26 01:51:55;;;;;;;;;4.25;2.00;;;;;10.12;74.67;100047.69;5043543;28;45916;-75
2023/03/26 01:54:24;;;;;;;;;1.75;1.00;;;;;10.08;75.86;100048.59;5054169;28;45723;-79
2023/03/26 01:57:04;;;;;;;;;2.00;2.00;;;;;9.87;76.21;100027.81;5050388;28;45690;-78
2023/03/26 01:59:55;;;;;;;;;2.00;2.00;;;;;9.95;76.58;100031.28;5044394;28;45556;-71
2023/03/26 02:02:43;;;;;;;;;4.50;2.00;;;;;9.97;76.56;100029.50;5050346;28;46079;-75
2023/03/26 02:05:42;;;;;;;;;3.75;2.25;;;;;9.92;76.23;100002.53;5038870;28;45405;-76
2023/03/26 02:08:21;;;;;;;;;2.00;2.00;;;;;9.93;77.11;99993.78;5021597;28;45442;-65
2023/03/26 02:10:52;;;;;;;;;3.00;1.00;;;;;9.96;77.08;99981.53;5043958;28;45580;-79
2023/03/26 02:13:19;;;;;;;;;2.50;2.25;;;;;10.01;76.96;99972.78;5039587;28;46267;-72
2023/03/26 02:16:02;;;;;;;;;1.25;1.25;;;;;10.05;77.81;99978.00;5044825;28;45435;-82
2023/03/26 02:18:40;;;;;;;;;5.50;2.50;;;;;10.07;77.66;99980.59;5059110;28;45357;-79
2023/03/26 02:21:12;;;;;;;;;2.75;1.50;;;;;9.97;78.31;99951.91;5038016;28;45377;-70
2023/03/26 02:23:45;;;;;;;;;5.00;3.00;;;;;9.96;78.30;99962.34;5037072;28;47168;-67
2023/03/26 02:26:12;;;;;;;;;2.00;1.00;;;;;9.94;77.82;99943.19;5058645;28;45421;-63
2023/03/26 02:28:39;;;;;;;;;4.00;1.50;;;;;9.71;77.93;99894.56;5054862;28;45560;-70
2023/03/26 02:31:08;;;;;;;;;1.00;1.00;;;;;9.88;78.24;99898.78;5050805;28;45629;-66
2023/03/26 02:33:33;;;;;;;;;4.00;2.00;;;;;9.74;78.53;99878.84;5046736;28;46373;-66
2023/03/26 02:36:00;;;;;;;;;3.50;3.00;;;;;9.75;78.93;99888.44;5057730;28;45359;-77
2023/03/26 02:38:28;;;;;;;;;2.75;2.00;;;;;9.64;79.23;99882.41;5038523;28;45827;-71
2023/03/26 02:40:54;;;;;;;;;2.00;2.00;;;;;9.65;79.80;99894.59;5037115;28;45341;-65
2023/03/26 02:43:20;;;;;;;;;3.25;2.00;;;;;9.61;79.08;99863.25;5058118;28;46120;-68
2023/03/26 02:45:46;;;;;;;;;2.00;2.00;;;;;9.60;79.04;99843.25;5036495;28;45359;-79
2023/03/26 02:48:12;;;;;;;;;2.00;2.00;;;;;9.73;79.00;99853.59;5055078;28;45343;-73
2023/03/26 02:50:38;;;;;;;;;3.75;2.00;;;;;9.74;78.70;99850.06;5053920;28;45519;-70
2023/03/26 02:53:05;;;;;;;;;4.00;4.00;;;;;9.88;78.13;99859.56;5058445;28;46262;-76
2023/03/26 02:55:30;;;;;;;;;2.25;2.00;;;;;9.91;78.02;99854.28;5055895;28;45557;-74
2023/03/26 02:57:56;;;;;;;;;6.00;3.00;;;;;9.94;77.72;99825.47;5056815;28;45287;-72
2023/03/26 03:00:22;;;;;;;;;2.50;1.75;;;;;9.95;77.61;99822.00;5042918;28;45291;-74
2023/03/26 03:02:48;;;;;;;;;4.00;2.00;;;;;10.01;77.51;99834.13;5060111;28;45917;-76
2023/03/26 03:05:16;;;;;;;;;3.75;2.25;;;;;10.08;77.31;99826.19;5034124;28;45416;-78
2023/03/26 03:07:45;;;;;;;;;2.00;2.00;;;;;10.02;76.94;99799.25;5047772;28;45508;-69
2023/03/26 03:10:12;;;;;;;;;2.00;2.00;;;;;10.18;77.06;99809.53;5037784;28;45489;-71
2023/03/26 03:12:39;;;;;;;;;3.75;2.00;;;;;10.31;76.89;99798.97;5055424;28;46725;-70
2023/03/26 03:15:06;;;;;;;;;4.00;4.00;;;;;10.34;76.33;99804.16;5058380;28;45360;-72
2023/03/26 03:17:31;;;;;;;;;2.75;2.00;;;;;10.37;76.25;99793.66;5059006;28;45420;-71
2023/03/26 03:19:58;;;;;;;;;4.75;1.25;;;;;10.38;75.50;99796.25;5056312;28;45363;-71
2023/03/26 03:22:24;;;;;;;;;3.50;1.25;;;;;10.46;75.68;99787.41;5035116;28;45489;-63
2023/03/26 03:24:56;;;;;;;;;3.50;2.00;;;;;10.52;75.29;99792.59;5054457;28;45479;-66
2023/03/26 03:27:24;;;;;;;;;1.25;1.25;;;;;10.39;74.97;99748.25;5055423;28;45426;-64
2023/03/26 03:29:52;;;;;;;;;2.75;2.00;;;;;10.61;74.84;99772.38;5055712;28;45407;-67
2023/03/26 03:32:18;;;;;;;;;2.50;1.00;;;;;10.60;74.24;99754.94;5054481;28;46071;-67
2023/03/26 03:34:44;;;;;;;;;1.75;1.75;;;;;10.77;73.75;99764.31;5056374;28;45417;-71
2023/03/26 03:37:10;;;;;;;;;3.00;1.25;;;;;10.80;73.15;99761.66;5053873;28;45536;-62
2023/03/26 03:39:36;;;;;;;;;1.75;1.00;;;;;10.72;72.81;99743.41;5054285;28;45577;-71
2023/03/26 03:42:02;;;;;;;;;4.00;1.75;;;;;10.88;72.17;99779.88;5053685;28;45372;-67
2023/03/26 03:44:27;;;;;;;;;1.25;0.75;;;;;10.92;71.94;99755.38;5056019;28;45498;-66
2023/03/26 03:46:54;;;;;;;;;2.00;1.00;;;;;11.00;71.68;99775.31;5058597;28;45463;-65
2023/03/26 03:49:21;;;;;;;;;2.00;0.25;;;;;11.03;70.73;99783.16;5039980;28;45491;-68
2023/03/26 03:51:47;;;;;;;;;3.00;0.00;;;;;11.00;70.60;99756.97;5057368;28;45968;-64
2023/03/26 03:54:13;;;;;;;;;0.00;0.00;;;;;11.02;69.64;99765.69;5053581;28;45875;-69
2023/03/26 03:56:39;;;;;;;;;1.00;1.00;;;;;11.14;69.92;99776.88;5052736;28;45431;-64
2023/03/26 03:59:04;;;;;;;;;1.00;1.00;;;;;11.17;69.47;99776.81;5053884;28;45719;-65
2023/03/26 04:01:30;;;;;;;;;1.00;1.00;;;;;11.10;69.57;99770.78;5054284;28;45578;-65
2023/03/26 04:03:57;;;;;;;;;0.00;0.00;;;;;11.17;69.13;99779.44;5056954;28;45426;-66
2023/03/26 04:06:24;;;;;;;;;1.50;1.00;;;;;11.16;68.62;99778.56;5043601;28;45759;-65
2023/03/26 04:08:50;;;;;;;;;0.75;0.00;;;;;11.01;67.90;99744.75;5057517;28;45446;-70
2023/03/26 04:11:16;;;;;;;;;0.00;0.00;;;;;11.15;68.34;99787.34;5036382;28;47320;-69
2023/03/26 04:13:42;;;;;;;;;1.00;0.00;;;;;11.13;67.55;99765.53;5054293;28;45487;-65
2023/03/26 04:16:08;;;;;;;;;0.00;0.00;;;;;11.11;67.15;99742.84;5054461;28;45452;-65
2023/03/26 04:18:36;;;;;;;;;0.00;0.00;;;;;11.12;66.42;99750.66;5036905;28;45370;-64
2023/03/26 04:21:02;;;;;;;;;0.00;0.00;;;;;11.20;66.09;99754.06;5034224;28;47061;-64
2023/03/26 04:23:28;;;;;;;;;0.50;0.50;;;;;11.07;65.81;99756.88;5050541;28;45460;-65
2023/03/26 04:25:55;;;;;;;;;0.00;0.00;;;;;11.19;65.28;99781.13;5036626;28;45524;-64
2023/03/26 04:28:31;;;;;;;;;0.75;0.00;;;;;11.21;65.71;99781.97;5055140;28;45520;-66
2023/03/26 04:31:00;;;;;;;;;0.00;0.00;;;;;11.25;64.97;99785.44;5041763;28;45441;-74
2023/03/26 04:33:33;;;;;;;;;0.00;0.00;;;;;11.23;64.76;99784.59;5054586;28;45339;-64
2023/03/26 04:36:03;;;;;;;;;0.50;0.00;;;;;11.23;64.67;99780.22;5057623;28;45417;-75
2023/03/26 04:38:32;;;;;;;;;0.00;0.00;;;;;11.23;64.28;99777.59;5057889;28;46135;-65
2023/03/26 04:41:01;;;;;;;;;0.00;0.00;;;;;11.17;64.64;99777.66;5057264;28;46758;-74
2023/03/26 04:43:27;;;;;;;;;4.50;0.00;;;;;11.18;64.60;99771.56;5060964;28;45386;-66
2023/03/26 04:45:53;;;;;;;;;0.00;0.00;;;;;11.30;64.70;99801.94;5063561;28;45351;-67
2023/03/26 04:48:19;;;;;;;;;0.25;0.00;;;;;11.31;64.35;99794.94;5063850;28;45389;-64
2023/03/26 04:50:45;;;;;;;;;1.00;1.00;;;;;11.25;64.15;99799.41;5062316;28;45341;-76
2023/03/26 04:53:15;;;;;;;;;2.00;0.00;;;;;11.20;64.09;99806.47;5059247;28;45341;-64
2023/03/26 04:55:48;;;;;;;;;1.00;0.00;;;;;11.15;63.82;99805.69;5056863;28;45448;-64
2023/03/26 04:58:14;;;;;;;;;0.00;0.00;;;;;11.02;63.02;99784.03;5045507;28;45416;-67
2023/03/26 05:00:42;;;;;;;;;1.00;0.00;;;;;11.09;63.24;99799.66;5056295;28;46039;-69
2023/03/26 05:03:11;;;;;;;;;2.00;0.00;;;;;11.16;63.56;99817.03;5056706;28;45486;-75
2023/03/26 05:05:37;;;;;;;;;2.00;0.00;;;;;11.06;63.49;99800.56;5047132;28;45493;-70
2023/03/26 05:08:03;;;;;;;;;0.00;0.00;;;;;11.19;63.39;99827.47;5054308;28;45433;-76
2023/03/26 05:10:29;;;;;;;;;0.00;0.00;;;;;11.19;63.38;99830.94;5042983;28;47963;-74
2023/03/26 05:12:54;;;;;;;;;0.00;0.00;;;;;11.06;63.23;99797.06;5057400;28;45601;-64
2023/03/26 05:15:20;;;;;;;;;0.00;0.00;;;;;11.19;62.96;99827.47;5055223;28;45466;-73
2023/03/26 05:17:47;;;;;;;;;1.00;0.00;;;;;11.22;63.07;99843.13;5049978;28;45636;-81
2023/03/26 05:20:21;;;;;;;;;0.00;0.00;;;;;11.22;63.43;99837.88;5058825;28;46219;-75
2023/03/26 05:22:48;;;;;;;;;0.00;0.00;;;;;11.20;63.14;99823.94;5058021;28;45444;-81
2023/03/26 05:25:15;;;;;;;;;0.25;0.00;;;;;11.22;62.82;99836.16;5058315;28;45651;-78
2023/03/26 05:27:41;;;;;;;;;0.00;0.00;;;;;11.18;62.87;99852.81;5057330;28;45481;-68
2023/03/26 05:30:08;;;;;;;;;0.00;0.00;;;;;11.13;62.85;99841.53;5056630;28;46389;-64
2023/03/26 05:32:34;;;;;;;;;0.00;0.00;;;;;11.18;62.75;99847.56;5042495;28;45520;-75
2023/03/26 05:35:00;;;;;;;;;0.75;0.00;;;;;11.21;63.16;99857.13;5061362;28;45386;-69
2023/03/26 05:37:29;;;;;;;;;0.00;0.00;;;;;11.12;62.84;99831.91;5060851;28;45367;-78
2023/03/26 05:39:56;;;;;;;;;0.00;0.00;;;;;11.17;62.79;99853.69;5060441;28;45453;-67
2023/03/26 05:42:22;;;;;;;;;0.00;0.00;;;;;11.20;62.89;99847.53;5056314;28;45443;-78
2023/03/26 05:44:48;;;;;;;;;3.00;0.00;;;;;11.29;62.14;99854.38;5055441;28;45669;-75
2023/03/26 05:47:14;;;;;;;;;1.00;0.00;;;;;11.22;62.24;99843.13;5036954;28;45580;-71
2023/03/26 05:49:40;;;;;;;;;2.00;0.00;;;;;11.20;62.10;99839.66;5055581;28;46127;-66
2023/03/26 05:52:05;;;;;;;;;0.50;0.00;;;;;11.19;61.87;99833.56;5055884;28;45611;-67
2023/03/26 05:54:31;;;;;;;;;0.00;0.00;;;;;11.25;61.51;99853.59;5056213;28;45395;-64
2023/03/26 05:56:57;;;;;;;;;0.00;0.00;;;;;11.21;61.73;99836.16;5055392;28;46868;-64
2023/03/26 05:59:23;;;;;;;;;0.00;0.00;;;;;11.18;61.48;99844.09;5058740;28;45977;-64
2023/03/26 06:01:49;;;;;;;;;0.25;0.00;;;;;11.17;61.78;99853.69;5056436;28;45553;-74
2023/03/26 06:04:16;;;;;;;;;0.00;0.00;;;;;11.16;61.85;99841.47;5056039;28;45300;-75
2023/03/26 06:06:43;;;;;;;;;1.00;0.00;;;;;11.00;61.52;99821.63;5040087;28;45434;-69
2023/03/26 06:09:12;;;;;;;;;1.00;0.00;;;;;11.11;61.10;99829.34;5040811;28;46299;-65
2023/03/26 06:11:38;;;;;;;;;0.00;0.00;;;;;11.15;61.53;99842.38;5037993;28;45437;-63
2023/03/26 06:14:04;;;;;;;;;0.00;0.00;;;;;11.20;61.44;99850.13;5056204;28;45388;-68
2023/03/26 06:16:30;;;;;;;;;0.00;0.00;;;;;11.31;61.05;99847.38;5055994;28;45790;-64
2023/03/26 06:18:56;;;;;;;;;0.00;0.00;;;;;11.32;60.59;99843.84;5055721;28;45457;-69
2023/03/26 06:21:22;;;;;;;;;1.50;0.00;;;;;11.49;60.00;99851.47;5058107;28;45465;-69
2023/03/26 06:23:47;;;;;;;;;0.00;0.00;;;;;11.49;59.50;99846.25;5055606;28;45587;-65
2023/03/26 06:26:14;;;;;;;;;0.00;0.00;;;;;11.64;59.26;99861.72;5055882;28;45665;-74
2023/03/26 06:28:40;;;;;;;;;0.00;0.00;;;;;11.72;59.40;99872.97;5055133;28;46354;-70
2023/03/26 06:31:06;;;;;;;;;0.00;0.00;;;;;11.70;58.68;99850.25;5057130;28;45374;-66
2023/03/26 06:33:32;;;;;;;;;0.00;0.00;;;;;11.89;58.65;99862.22;5038101;28;45633;-71
2023/03/26 06:35:57;;;;;;;;;0.75;0.75;;;;;11.93;58.38;99852.50;5056010;28;45412;-77
2023/03/26 06:38:23;;;;;;;;;0.75;0.00;;;;;11.99;58.74;99863.78;5037461;28;47153;-63
2023/03/26 06:40:49;;;;;;;;;1.25;0.00;;;;;11.87;58.33;99836.00;5053948;28;45807;-66
2023/03/26 06:43:15;;;;;;;;;0.67;0.00;;;;;12.03;58.28;99851.44;5055928;28;45382;-66
2023/03/26 06:45:40;;;;;;;;;0.33;0.00;;;;;12.13;57.57;99860.03;5036503;28;45568;-74
2023/03/26 06:48:07;;;;;;;;;0.00;0.00;;;;;12.24;57.52;99869.44;5036333;28;45665;-65
2023/03/26 06:50:33;;;;;;;;;2.00;0.00;;;;;12.16;57.43;99855.59;5058544;28;45309;-69
2023/03/26 06:52:59;;;;;;;;;0.00;0.00;;;;;12.25;57.64;99873.78;5058728;28;45473;-68
2023/03/26 06:55:25;;;;;;;;;2.67;0.00;;;;;12.15;58.10;99864.38;5057852;28;45447;-66
2023/03/26 06:57:51;;;;;;;;;0.00;0.00;;;;;12.24;57.94;99879.06;5035877;28;46530;-69
2023/03/26 07:00:17;;;;;;;;;0.75;0.00;;;;;12.30;57.05;99882.44;5036165;28;45422;-75
2023/03/26 07:02:44;;;;;;;;;0.75;0.75;;;;;12.24;57.17;99884.31;5054062;28;45485;-74
2023/03/26 07:05:10;;;;;;;;;1.00;0.00;;;;;12.28;57.69;99889.47;5050105;28;45352;-64
2023/03/26 07:07:36;;;;;;;;;0.33;0.33;;;;;12.36;57.40;99885.84;5035985;28;47041;-64
2023/03/26 07:10:02;;;;;;;;;0.50;0.00;;;;;12.34;56.96;99869.25;5057127;28;45320;-71
2023/03/26 07:12:28;;;;;;;;;5.00;0.00;;;;;12.29;56.85;99891.22;5054569;28;45630;-67
2023/03/26 07:14:53;;;;;;;;;0.00;0.00;;;;;12.21;56.82;99889.63;5053042;28;45648;-64
2023/03/26 07:17:19;;;;;;;;;1.25;1.00;;;;;11.98;57.38;99872.56;5054228;28;45345;-72
2023/03/26 07:19:45;;;;;;;;;0.00;0.00;;;;;11.93;57.00;99878.75;5054689;28;45458;-79
2023/03/26 07:22:20;;;;;;;;;1.25;0.00;;;;;12.03;57.70;99907.44;5052537;28;45614;-63
2023/03/26 07:24:45;;;;;;;;;1.33;0.00;;;;;12.00;57.63;99886.47;5039142;28;45475;-67
2023/03/26 07:27:23;;;;;;;;;1.00;0.00;;;;;12.10;57.80;99910.81;5053887;28;46157;-64
2023/03/26 07:30:01;;;;;;;;;0.00;0.00;;;;;12.15;57.74;99911.63;5054242;28;45985;-65
2023/03/26 07:32:40;;;;;;;;;0.00;0.00;;;;;12.17;57.78;99914.19;5058091;28;45482;-67
2023/03/26 07:35:06;;;;;;;;;2.33;0.00;;;;;12.22;57.20;99908.00;5057203;28;45313;-69
2023/03/26 07:37:51;;;;;;;;;0.67;0.00;;;;;12.24;57.55;99908.84;5053768;28;45464;-65
2023/03/26 07:40:39;;;;;;;;;1.00;0.67;;;;;12.38;56.71;99924.31;5054202;28;45593;-72
2023/03/26 07:43:29;;;;;;;;;5.00;1.00;;;;;12.43;57.10;99911.09;5046647;28;45563;-66
2023/03/26 07:45:56;;;;;;;;;1.33;0.67;;;;;12.34;57.27;99911.25;5055095;28;45544;-66
2023/03/26 07:48:28;;;;;;;;;0.00;0.00;;;;;12.36;57.04;99915.59;5054158;28;46226;-68
2023/03/26 07:50:54;;;;;;;;;1.33;0.00;;;;;12.40;57.69;99927.78;5056406;28;45882;-67
2023/03/26 07:53:21;;;;;;;;;4.67;1.00;;;;;12.41;57.41;99915.50;5036087;28;45412;-74
2023/03/26 07:55:51;;;;;;;;;2.00;0.00;;;;;12.47;57.40;99918.91;5054201;28;45450;-76
2023/03/26 07:58:41;;;;;;;;;7.67;1.67;;;;;12.53;57.29;99925.81;5054542;28;46541;-67
2023/03/26 08:01:19;;;;;;;;;2.00;0.00;;;;;12.50;57.03;99928.47;5056108;28;45500;-66
2023/03/26 08:04:04;;;;;;;;;2.33;0.00;;;;;12.53;56.93;99917.94;5057710;28;45339;-77
2023/03/26 08:06:36;;;;;;;;;2.33;1.33;;;;;12.55;56.86;99931.88;5039378;28;45463;-66
2023/03/26 08:09:39;;;;;;;;;1.00;1.00;;;;;12.54;57.27;99937.19;5055251;28;45579;-67
2023/03/26 08:12:23;;;;;;;;;1.75;1.00;;;;;12.48;57.01;99939.03;5057040;28;45362;-74
2023/03/26 08:15:02;;;;;;;;;3.00;0.67;;;;;12.42;57.27;99923.38;5058259;28;45397;-64
2023/03/26 08:17:43;;;;;;;;;2.00;0.67;;;;;12.29;57.44;99912.25;5043971;28;45478;-73
2023/03/26 08:20:30;;;;;;;;;2.00;0.33;;;;;12.32;57.64;99934.09;5061487;28;46260;-68
2023/03/26 08:23:06;;;;;;;;;2.50;1.00;;;;;12.26;57.77;99932.41;5061652;28;45424;-63
2023/03/26 08:25:33;;;;;;;;;1.00;0.00;;;;;12.28;57.99;99941.13;5043351;28;45386;-75
2023/03/26 08:28:25;;;;;;;;;1.00;1.00;;;;;12.23;58.41;99928.09;5041127;28;45318;-72
2023/03/26 08:30:53;;;;;;;;;1.50;0.75;;;;;12.17;57.96;99924.69;5056803;28;45449;-69
2023/03/26 08:33:21;;;;;;;;;1.75;1.00;;;;;12.09;58.85;99932.72;5027198;28;46907;-65
2023/03/26 08:35:48;;;;;;;;;2.00;2.00;;;;;12.11;58.39;99924.81;5034540;28;45438;-73
2023/03/26 08:38:16;;;;;;;;;2.67;2.00;;;;;12.14;58.66;99916.88;5052312;28;45162;-79
2023/03/26 08:41:10;;;;;;;;;2.00;1.00;;;;;12.24;58.72;99944.69;5061202;28;46678;-69
2023/03/26 08:43:56;;;;;;;;;2.67;1.00;;;;;12.29;58.38;99948.09;5060887;28;45453;-71
2023/03/26 08:46:31;;;;;;;;;2.00;1.00;;;;;12.40;58.28;99950.56;5046214;28;45581;-69
2023/03/26 08:49:21;;;;;;;;;2.00;1.00;;;;;12.28;57.46;99933.25;5059035;28;45370;-74
2023/03/26 08:52:16;;;;;;;;;4.00;1.00;;;;;12.48;57.86;99946.91;5042443;28;45465;-65
2023/03/26 08:54:55;;;;;;;;;2.75;2.50;;;;;12.37;57.78;99927.00;5050263;28;45529;-65
2023/03/26 08:57:37;;;;;;;;;2.00;1.00;;;;;12.50;56.98;99946.84;5062248;28;45437;-69
2023/03/26 09:00:20;;;;;;;;;35.25;28.25;;;;;12.51;59.13;99946.84;5059364;28;45486;-66
2023/03/26 09:03:25;;;;;;;;;2.67;1.33;;;;;12.65;56.89;99936.06;5057718;28;45469;-64
2023/03/26 09:06:11;;;;;;;;;4.67;0.00;;;;;12.62;56.24;99951.88;5046515;28;45573;-68
2023/03/26 09:09:07;;;;;;;;;0.00;0.00;;;;;12.58;56.33;99963.34;5059767;28;45298;-69
2023/03/26 09:11:48;;;;;;;;;1.33;0.67;;;;;12.44;55.60;99960.13;5055994;28;45537;-72
2023/03/26 09:14:35;;;;;;;;;2.00;0.00;;;;;12.47;55.44;99962.69;5057949;28;46167;-66
2023/03/26 09:17:35;;;;;;;;;0.67;0.33;;;;;12.47;55.49;99954.81;5063211;28;45450;-65
2023/03/26 09:20:21;;;;;;;;;3.33;0.33;;;;;12.50;55.68;99967.88;5040125;28;45632;-73
2023/03/26 09:23:01;;;;;;;;;1.67;1.00;;;;;12.53;55.25;99975.72;5059550;28;45366;-70
2023/03/26 09:25:48;;;;;;;;;0.00;0.00;;;;;12.50;55.51;99973.13;5060906;28;46312;-75
2023/03/26 09:28:38;;;;;;;;;359.80;302.40;;;;;12.50;60.86;99971.38;5054857;28;45560;-67
2023/03/26 09:31:15;;;;;;;;;99.00;87.33;;;;;12.64;56.91;99981.63;5056089;28;45321;-68
2023/03/26 09:34:10;;;;;;;;;5.00;3.25;;;;;12.56;55.05;99967.78;5059276;28;45686;-67
2023/03/26 09:36:51;;;;;;;;;1.00;1.00;;;;;12.59;54.41;99977.34;5026835;28;45432;-70
2023/03/26 09:39:32;;;;;;;;;2.00;0.00;;;;;12.52;54.89;99982.72;5056048;28;45659;-77
2023/03/26 09:42:16;;;;;;;;;1.00;0.00;;;;;12.45;54.55;99983.72;5050126;28;45377;-69
2023/03/26 09:44:41;;;;;;;;;0.67;0.67;;;;;12.41;54.03;99978.53;5027211;28;45929;-72
2023/03/26 09:47:21;;;;;;;;;0.00;0.00;;;;;12.40;54.49;99992.56;5058081;28;46313;-74
2023/03/26 09:49:59;;;;;;;;;1.33;0.00;;;;;12.38;54.08;99992.59;5043077;28;45499;-73
2023/03/26 09:52:44;;;;;;;;;0.33;0.00;;;;;12.32;54.78;100002.34;5056123;28;45572;-67
2023/03/26 09:55:31;;;;;;;;;2.00;0.00;;;;;12.36;55.08;100004.88;5037500;28;45772;-70
2023/03/26 09:58:00;;;;;;;;;2.00;0.33;;;;;12.35;54.30;100005.78;5038499;28;45553;-70
2023/03/26 10:00:35;;;;;;;;;0.67;0.00;;;;;12.35;54.89;100013.66;5026280;28;45443;-71
2023/03/26 10:03:17;;;;;;;;;0.00;0.00;;;;;12.36;54.68;100009.28;5042300;28;45462;-69
2023/03/26 10:05:56;;;;;;;;;0.00;0.00;;;;;12.34;54.56;100006.69;5022575;28;45978;-79
2023/03/26 10:08:28;;;;;;;;;0.00;0.00;;;;;12.32;54.72;100012.84;5052126;28;45533;-72
2023/03/26 10:11:25;;;;;;;;;2.25;0.00;;;;;12.32;54.81;100015.50;5038238;28;45489;-75
2023/03/26 10:14:00;;;;;;;;;5.50;3.50;;;;;12.26;54.55;100004.16;5044859;28;45399;-73
2023/03/26 10:16:33;;;;;;;;;3.00;1.00;;;;;12.32;54.65;100013.72;5039035;28;46079;-70
2023/03/26 10:19:06;;;;;;;;;1.00;0.00;;;;;12.38;54.33;100026.72;5055419;28;46492;-72
2023/03/26 10:21:53;;;;;;;;;2.33;0.00;;;;;12.36;54.23;100025.03;5037457;28;45447;-73
2023/03/26 10:24:45;;;;;;;;;0.00;0.00;;;;;12.35;54.61;100021.53;5044986;28;45519;-75
2023/03/26 10:27:27;;;;;;;;;0.75;0.00;;;;;12.39;54.69;100015.34;5029106;28;45337;-70
2023/03/26 10:30:14;;;;;;;;;2.00;0.00;;;;;12.43;53.98;100022.28;5055151;28;45435;-69
2023/03/26 10:33:04;;;;;;;;;0.00;0.00;;;;;12.48;54.12;100036.22;5040476;28;45552;-65
2023/03/26 10:36:11;;;;;;;;;1.00;0.00;;;;;12.54;54.13;100029.97;5054955;28;45458;-66
2023/03/26 10:38:52;;;;;;;;;39.25;35.25;;;;;12.73;56.11;100028.75;5041266;28;45513;-65
2023/03/26 10:41:47;;;;;;;;;7.25;7.25;;;;;12.80;54.01;100024.25;5042213;28;46615;-65
2023/03/26 10:44:50;;;;;;;;;0.00;0.00;;;;;13.02;53.80;100034.34;5053345;28;45296;-67
2023/03/26 10:47:37;;;;;;;;;1.00;0.00;;;;;13.32;52.74;100031.16;5054344;28;45451;-69
2023/03/26 10:51:08;;;;;;;;;3.00;0.00;;;;;13.56;52.40;100037.66;5054702;28;45638;-68
2023/03/26 10:53:42;;;;;;;;;1.00;1.00;;;;;13.57;51.46;100014.84;4980112;28;45568;-66
2023/03/26 10:56:14;;;;;;;;;0.00;0.00;;;;;13.67;51.43;100037.44;5054217;28;45456;-66
2023/03/26 10:58:40;;;;;;;;;3.00;3.00;;;;;13.69;51.55;100032.13;5054550;28;45450;-69
2023/03/26 11:01:30;;;;;;;;;2.00;2.00;;;;;13.76;51.10;100020.56;5055157;28;45517;-70
2023/03/26 11:04:25;;;;;;;;;1.00;1.00;;;;;13.92;51.43;100019.31;5037906;28;46017;-66
2023/03/26 11:07:02;;;;;;;;;0.67;0.00;;;;;14.38;50.68;100038.44;5040332;28;45550;-66
2023/03/26 11:09:28;;;;;;;;;0.00;0.00;;;;;14.96;49.36;100042.22;5055531;28;45878;-67
2023/03/26 11:12:41;;;;;;;;;0.00;0.00;;;;;15.29;48.41;100030.78;5045735;28;45513;-70
2023/03/26 11:15:16;;;;;;;;;0.00;0.00;;;;;15.45;48.07;100024.16;5055324;28;45476;-66
2023/03/26 11:17:59;;;;;;;;;4.00;0.00;;;;;15.79;47.61;100029.31;5054273;28;45862;-63
2023/03/26 11:20:46;;;;;;;;;1.00;1.00;;;;;15.76;47.16;100031.19;5037296;28;45505;-82
2023/03/26 11:23:26;;;;;;;;;3.00;1.67;;;;;15.55;47.54;100036.16;5055285;28;45699;-68
2023/03/26 11:26:13;;;;;;;;;2.00;1.00;;;;;15.14;47.90;100019.75;5043633;28;45858;-65
2023/03/26 11:28:53;;;;;;;;;0.67;0.00;;;;;15.45;48.06;100030.28;5057940;28;45597;-65
2023/03/26 11:31:50;;;;;;;;;1.00;1.00;;;;;15.88;47.43;100014.97;5058176;28;45534;-69
2023/03/26 11:34:22;;;;;;;;;0.00;0.00;;;;;16.00;46.96;100009.28;5034102;28;45817;-71
2023/03/26 11:36:52;;;;;;;;;2.33;1.67;;;;;15.86;46.82;100006.22;5036634;28;47478;-70
2023/03/26 11:39:41;;;;;;;;;2.00;1.00;;;;;15.71;47.57;99998.75;5040287;28;45473;-79
2023/03/26 11:42:13;;;;;;;;;0.67;0.00;;;;;16.08;46.78;99995.81;5055234;28;45593;-71
2023/03/26 11:44:46;;;;;;;;;2.00;0.00;;;;;16.26;45.82;100010.22;5054387;28;45507;-68
2023/03/26 11:47:17;;;;;;;;;1.00;1.00;;;;;16.19;45.35;100009.56;5057397;28;46550;-79
2023/03/26 11:49:46;;;;;;;;;0.33;0.00;;;;;15.81;45.28;99993.16;5054266;28;45726;-80
2023/03/26 11:52:14;;;;;;;;;1.00;0.00;;;;;15.63;45.19;100010.38;5055005;28;45715;-68
2023/03/26 11:54:42;;;;;;;;;0.67;0.67;;;;;15.38;45.38;99989.16;5056922;28;45556;-64
2023/03/26 11:57:14;;;;;;;;;1.33;0.00;;;;;15.21;45.39;99983.50;5054169;28;45552;-65
2023/03/26 11:59:49;;;;;;;;;2.00;0.00;;;;;15.24;45.83;100013.31;5052863;28;45582;-64